createdAt,value
2023-06-10T00:00:57.362Z,27.57
2023-06-10T00:02:59.075Z,27.44
2023-06-10T00:05:01.222Z,27.47
2023-06-10T00:07:09.763Z,27.58
2023-06-10T00:09:11.772Z,27.56
2023-06-10T00:11:13.392Z,27.57
2023-06-10T00:13:15.527Z,27.54
2023-06-10T00:15:17.319Z,27.56
2023-06-10T00:17:18.931Z,27.54
2023-06-10T00:19:20.573Z,27.54
2023-06-10T00:21:23.190Z,27.50
2023-06-10T00:23:26.157Z,27.52
2023-06-10T00:25:27.765Z,27.52
2023-06-10T00:27:32.511Z,27.52
2023-06-10T00:29:34.468Z,27.50
2023-06-10T00:31:37.531Z,27.51
2023-06-10T00:33:39.042Z,27.50
2023-06-10T00:35:41.183Z,27.50
2023-06-10T00:37:42.808Z,27.49
2023-06-10T00:39:44.335Z,27.49
2023-06-10T00:41:46.143Z,27.48
2023-06-10T00:43:47.984Z,27.48
2023-06-10T00:45:50.691Z,27.47
2023-06-10T00:47:52.750Z,27.47
2023-06-10T00:49:55.544Z,27.45
2023-06-10T00:51:57.613Z,27.46
2023-06-10T00:53:59.329Z,27.46
2023-06-10T00:56:01.099Z,27.45
2023-06-10T00:58:04.972Z,27.43
2023-06-10T01:00:09.517Z,27.43
2023-06-10T01:02:11.344Z,27.43
2023-06-10T01:04:13.389Z,27.44
2023-06-10T01:06:27.324Z,27.43
2023-06-10T01:08:47.364Z,27.42
2023-06-10T01:10:58.901Z,27.33
2023-06-10T01:13:07.960Z,27.39
2023-06-10T01:15:12.742Z,27.39
2023-06-10T01:17:17.865Z,27.39
2023-06-10T01:19:19.965Z,27.38
2023-06-10T01:21:25.662Z,27.35
2023-06-10T01:23:28.455Z,27.37
2023-06-10T01:25:33.937Z,27.36
2023-06-10T01:27:40.854Z,27.28
2023-06-10T01:29:46.277Z,27.36
2023-06-10T01:32:03.727Z,27.36
2023-06-10T01:34:11.470Z,27.33
2023-06-10T01:36:14.346Z,27.32
2023-06-10T01:38:17.226Z,27.28
2023-06-10T01:40:19.078Z,27.30
2023-06-10T01:42:21.928Z,27.34
2023-06-10T01:44:24.206Z,27.30
2023-06-10T01:46:26.261Z,27.28
2023-06-10T01:48:28.177Z,27.16
2023-06-10T01:50:29.819Z,27.28
2023-06-10T01:52:31.597Z,27.31
2023-06-10T01:54:35.520Z,27.29
2023-06-10T01:56:37.634Z,27.31
2023-06-10T01:58:39.473Z,27.30
2023-06-10T02:00:41.382Z,27.29
2023-06-10T02:02:43.145Z,27.29
2023-06-10T02:04:44.778Z,27.27
2023-06-10T02:06:46.594Z,27.28
2023-06-10T02:08:48.321Z,27.28
2023-06-10T02:10:49.956Z,27.26
2023-06-10T02:12:51.721Z,27.26
2023-06-10T02:14:53.389Z,27.26
2023-06-10T02:16:57.675Z,27.25
2023-06-10T02:18:59.765Z,27.25
2023-06-10T02:21:01.362Z,27.25
2023-06-10T02:23:02.957Z,27.22
2023-06-10T02:25:06.265Z,27.22
2023-06-10T02:27:07.873Z,27.18
2023-06-10T02:29:09.472Z,27.21
2023-06-10T02:31:11.002Z,27.18
2023-06-10T02:33:12.776Z,27.20
2023-06-10T02:35:18.698Z,27.18
2023-06-10T02:37:20.443Z,27.20
2023-06-10T02:39:23.475Z,27.18
2023-06-10T02:41:26.037Z,27.15
2023-06-10T02:43:29.174Z,27.15
2023-06-10T02:45:30.742Z,27.18
2023-06-10T02:47:32.410Z,27.11
2023-06-10T02:49:34.091Z,27.17
2023-06-10T02:51:36.807Z,27.15
2023-06-10T02:53:38.509Z,27.02
2023-06-10T02:55:40.686Z,27.09
2023-06-10T02:57:42.373Z,27.14
2023-06-10T02:59:44.262Z,27.12
2023-06-10T03:01:47.473Z,27.11
2023-06-10T03:03:49.126Z,27.12
2023-06-10T03:05:50.822Z,27.12
2023-06-10T03:07:52.689Z,27.13
2023-06-10T03:09:54.463Z,27.11
2023-06-10T03:11:56.610Z,27.11
2023-06-10T03:13:58.609Z,27.04
2023-06-10T03:16:00.818Z,27.10
2023-06-10T03:18:03.493Z,27.04
2023-06-10T03:20:06.716Z,27.09
2023-06-10T03:22:11.078Z,27.08
2023-06-10T03:24:12.880Z,27.08
2023-06-10T03:26:15.848Z,27.02
2023-06-10T03:28:17.503Z,27.03
2023-06-10T03:30:19.351Z,27.07
2023-06-10T03:32:20.948Z,27.06
2023-06-10T03:34:22.798Z,27.05
2023-06-10T03:36:24.419Z,27.05
2023-06-10T03:38:26.047Z,27.05
2023-06-10T03:40:27.625Z,27.01
2023-06-10T03:42:29.147Z,27.03
2023-06-10T03:44:30.865Z,27.03
2023-06-10T03:46:32.499Z,27.00
2023-06-10T03:48:34.296Z,27.03
2023-06-10T03:50:37.349Z,27.01
2023-06-10T03:52:39.326Z,27.00
2023-06-10T03:54:41.005Z,26.99
2023-06-10T03:56:42.693Z,27.00
2023-06-10T03:58:47.459Z,26.96
2023-06-10T04:00:50.697Z,27.00
2023-06-10T04:02:53.293Z,26.99
2023-06-10T04:04:54.980Z,26.95
2023-06-10T04:06:56.523Z,26.98
2023-06-10T04:08:58.325Z,26.97
2023-06-10T04:11:00.536Z,26.97
2023-06-10T04:13:03.173Z,26.95
2023-06-10T04:15:06.248Z,26.95
2023-06-10T04:17:08.079Z,26.96
2023-06-10T04:19:09.701Z,26.95
2023-06-10T04:21:11.292Z,26.94
2023-06-10T04:23:12.808Z,26.95
2023-06-10T04:25:14.402Z,26.94
2023-06-10T04:27:16.529Z,26.93
2023-06-10T04:29:18.100Z,26.92
2023-06-10T04:31:20.591Z,26.90
2023-06-10T04:33:22.202Z,26.90
2023-06-10T04:35:23.829Z,26.92
2023-06-10T04:37:25.388Z,26.90
2023-06-10T04:39:27.247Z,26.84
2023-06-10T04:41:28.819Z,26.90
2023-06-10T04:43:31.625Z,26.90
2023-06-10T04:45:33.288Z,26.91
2023-06-10T04:47:35.404Z,26.85
2023-06-10T04:49:37.305Z,26.85
2023-06-10T04:51:39.056Z,26.90
2023-06-10T04:53:40.688Z,26.88
2023-06-10T04:55:42.571Z,26.88
2023-06-10T04:57:44.270Z,26.84
2023-06-10T04:59:46.006Z,26.87
2023-06-10T05:01:47.677Z,26.86
2023-06-10T05:03:49.498Z,26.85
2023-06-10T05:05:51.202Z,26.86
2023-06-10T05:07:52.966Z,26.86
2023-06-10T05:09:54.575Z,26.81
2023-06-10T05:11:56.462Z,26.84
2023-06-10T05:13:58.038Z,26.84
2023-06-10T05:15:59.973Z,26.84
2023-06-10T05:18:03.825Z,26.84
2023-06-10T05:20:06.168Z,26.83
2023-06-10T05:22:07.937Z,26.84
2023-06-10T05:24:09.641Z,26.83
2023-06-10T05:26:11.813Z,26.83
2023-06-10T05:28:15.822Z,26.83
2023-06-10T05:30:19.698Z,26.81
2023-06-10T05:32:21.445Z,26.81
2023-06-10T05:34:23.149Z,26.82
2023-06-10T05:36:26.608Z,26.81
2023-06-10T05:38:28.413Z,26.81
2023-06-10T05:40:30.184Z,26.82
2023-06-10T05:42:31.807Z,26.74
2023-06-10T05:44:33.838Z,26.70
2023-06-10T05:46:35.758Z,26.78
2023-06-10T05:48:37.334Z,26.80
2023-06-10T05:50:39.131Z,26.79
2023-06-10T05:52:43.834Z,26.80
2023-06-10T05:54:45.516Z,26.73
2023-06-10T05:56:47.294Z,26.78
2023-06-10T05:58:49.826Z,26.79
2023-06-10T06:00:51.561Z,26.72
2023-06-10T06:02:54.587Z,26.78
2023-06-10T06:04:56.298Z,26.75
2023-06-10T06:06:57.950Z,26.78
2023-06-10T06:08:59.626Z,26.78
2023-06-10T06:11:01.255Z,26.71
2023-06-10T06:13:03.338Z,26.74
2023-06-10T06:15:05.540Z,26.77
2023-06-10T06:17:07.836Z,26.77
2023-06-10T06:19:10.558Z,26.76
2023-06-10T06:21:12.193Z,26.77
2023-06-10T06:23:14.494Z,26.76
2023-06-10T06:25:16.555Z,26.77
2023-06-10T06:27:18.163Z,26.77
2023-06-10T06:29:19.908Z,26.76
2023-06-10T06:31:21.673Z,26.76
2023-06-10T06:33:23.469Z,26.74
2023-06-10T06:35:25.638Z,26.76
2023-06-10T06:37:27.457Z,26.76
2023-06-10T06:39:29.034Z,26.71
2023-06-10T06:41:30.584Z,26.77
2023-06-10T06:43:32.327Z,26.76
2023-06-10T06:45:34.964Z,26.74
2023-06-10T06:47:36.698Z,26.76
2023-06-10T06:49:38.531Z,26.73
2023-06-10T06:51:40.276Z,26.73
2023-06-10T06:53:47.706Z,26.75
2023-06-10T06:55:49.316Z,26.76
2023-06-10T06:57:50.925Z,26.76
2023-06-10T06:59:52.823Z,26.70
2023-06-10T07:01:55.807Z,26.76
2023-06-10T07:03:57.589Z,26.56
2023-06-10T07:05:59.274Z,26.77
2023-06-10T07:08:00.822Z,26.77
2023-06-10T07:10:02.821Z,26.76
2023-06-10T07:12:04.822Z,26.78
2023-06-10T07:14:06.532Z,26.79
2023-06-10T07:16:08.228Z,26.77
2023-06-10T07:18:09.937Z,26.80
2023-06-10T07:20:12.335Z,26.80
2023-06-10T07:22:14.188Z,26.76
2023-06-10T07:24:16.019Z,26.81
2023-06-10T07:26:17.757Z,26.80
2023-06-10T07:28:19.318Z,26.83
2023-06-10T07:30:20.929Z,26.85
2023-06-10T07:32:24.849Z,26.84
2023-06-10T07:34:26.519Z,26.85
2023-06-10T07:36:29.563Z,26.87
2023-06-10T07:38:31.122Z,26.86
2023-06-10T07:40:35.159Z,26.89
2023-06-10T07:42:37.696Z,26.82
2023-06-10T07:44:39.411Z,26.91
2023-06-10T07:46:41.047Z,26.89
2023-06-10T07:48:42.691Z,26.89
2023-06-10T07:50:44.328Z,26.92
2023-06-10T07:52:46.086Z,26.90
2023-06-10T07:54:47.727Z,26.93
2023-06-10T07:56:49.322Z,26.82
2023-06-10T07:58:50.893Z,26.97
2023-06-10T08:00:52.791Z,26.94
2023-06-10T08:02:54.648Z,26.99
2023-06-10T08:04:56.422Z,26.96
2023-06-10T08:06:58.176Z,27.00
2023-06-10T08:09:00.986Z,27.01
2023-06-10T08:11:02.582Z,27.03
2023-06-10T08:13:04.263Z,27.04
2023-06-10T08:15:07.059Z,27.04
2023-06-10T08:17:08.995Z,27.05
2023-06-10T08:19:10.609Z,27.06
2023-06-10T08:21:12.277Z,27.07
2023-06-10T08:23:15.348Z,27.08
2023-06-10T08:25:17.059Z,27.05
2023-06-10T08:27:18.715Z,27.10
2023-06-10T08:29:20.319Z,27.10
2023-06-10T08:31:22.090Z,27.12
2023-06-10T08:33:23.845Z,27.13
2023-06-10T08:35:25.768Z,27.14
2023-06-10T08:37:27.704Z,27.14
2023-06-10T08:39:32.906Z,27.16
2023-06-10T08:41:38.288Z,27.17
2023-06-10T08:44:04.710Z,27.19
2023-06-10T08:46:10.669Z,27.16
2023-06-10T08:48:15.497Z,27.18
2023-06-10T08:50:17.965Z,27.19
2023-06-10T08:52:21.224Z,27.15
2023-06-10T08:54:25.714Z,27.22
2023-06-10T08:56:30.808Z,27.23
2023-06-10T08:58:34.646Z,27.25
2023-06-10T09:00:37.965Z,27.26
2023-06-10T09:02:39.976Z,27.26
2023-06-10T09:04:45.038Z,27.23
2023-06-10T09:06:47.902Z,27.21
2023-06-10T09:08:49.799Z,27.28
2023-06-10T09:10:51.561Z,27.25
2023-06-10T09:12:53.206Z,27.29
2023-06-10T09:14:54.790Z,27.30
2023-06-10T09:16:59.606Z,27.09
2023-06-10T09:19:01.441Z,27.32
2023-06-10T09:21:03.208Z,27.32
2023-06-10T09:23:05.093Z,27.34
2023-06-10T09:25:11.724Z,27.31
2023-06-10T09:27:13.321Z,27.32
2023-06-10T09:29:15.017Z,27.37
2023-06-10T09:31:19.662Z,27.37
2023-06-10T09:33:27.762Z,27.37
2023-06-10T09:35:31.472Z,27.39
2023-06-10T09:37:33.230Z,27.40
2023-06-10T09:39:34.794Z,27.40
2023-06-10T09:41:41.569Z,27.43
2023-06-10T09:43:45.116Z,27.42
2023-06-10T09:45:54.476Z,27.38
2023-06-10T09:47:56.720Z,27.44
2023-06-10T09:49:58.471Z,27.44
2023-06-10T09:52:00.248Z,27.44
2023-06-10T09:54:04.120Z,27.43
2023-06-10T09:56:08.776Z,27.42
2023-06-10T09:58:12.074Z,27.46
2023-06-10T10:00:14.440Z,27.44
2023-06-10T10:02:17.033Z,27.37
2023-06-10T10:04:28.105Z,27.51
2023-06-10T10:06:30.984Z,27.49
2023-06-10T10:08:32.617Z,27.45
2023-06-10T10:10:34.352Z,27.54
2023-06-10T10:12:38.762Z,27.53
2023-06-10T10:14:43.552Z,27.42
2023-06-10T10:16:47.098Z,27.57
2023-06-10T10:19:05.655Z,27.60
2023-06-10T10:21:13.503Z,27.60
2023-06-10T10:23:22.961Z,27.58
2023-06-10T10:25:37.129Z,27.11
2023-06-10T10:27:49.700Z,27.62
2023-06-10T10:29:54.250Z,27.60
2023-06-10T10:31:57.805Z,27.69
2023-06-10T10:34:01.034Z,27.70
2023-06-10T10:36:03.654Z,27.71
2023-06-10T10:38:06.412Z,27.71
2023-06-10T10:40:09.629Z,27.70
2023-06-10T10:42:12.109Z,27.71
2023-06-10T10:44:14.242Z,27.73
2023-06-10T10:46:18.359Z,27.80
2023-06-10T10:48:20.384Z,27.80
2023-06-10T10:50:22.598Z,27.84
2023-06-10T10:52:24.230Z,27.86
2023-06-10T10:54:31.373Z,27.87
2023-06-10T10:56:33.060Z,27.88
2023-06-10T10:58:35.482Z,27.90
2023-06-10T11:00:39.555Z,27.92
2023-06-10T11:02:44.813Z,27.94
2023-06-10T11:04:50.315Z,27.98
2023-06-10T11:06:55.597Z,27.99
2023-06-10T11:09:01.758Z,27.94
2023-06-10T11:11:26.865Z,28.07
2023-06-10T11:13:28.831Z,28.05
2023-06-10T11:15:30.952Z,28.11
2023-06-10T11:17:32.703Z,28.13
2023-06-10T11:19:36.842Z,28.16
2023-06-10T11:22:04.505Z,28.19
2023-06-10T11:24:15.561Z,28.21
2023-06-10T11:26:32.681Z,28.24
2023-06-10T11:28:34.380Z,28.25
2023-06-10T11:30:36.303Z,28.26
2023-06-10T11:32:38.070Z,28.27
2023-06-10T11:34:39.810Z,28.32
2023-06-10T11:36:44.042Z,28.34
2023-06-10T11:38:45.967Z,28.33
2023-06-10T11:40:51.273Z,28.40
2023-06-10T11:42:53.347Z,28.41
2023-06-10T11:44:55.797Z,28.42
2023-06-10T11:46:57.607Z,28.43
2023-06-10T11:49:01.003Z,28.45
2023-06-10T11:51:08.132Z,28.49
2023-06-10T11:53:10.021Z,28.48
2023-06-10T11:55:11.725Z,28.51
2023-06-10T11:57:13.649Z,28.51
2023-06-10T11:59:15.508Z,28.58
2023-06-10T12:01:28.696Z,28.61
2023-06-10T12:03:38.791Z,28.63
2023-06-10T12:05:40.555Z,28.64
2023-06-10T12:07:42.456Z,28.63
2023-06-10T12:09:44.050Z,28.68
2023-06-10T12:11:46.796Z,28.69
2023-06-10T12:13:50.824Z,28.74
2023-06-10T12:15:52.622Z,28.76
2023-06-10T12:17:54.399Z,28.79
2023-06-10T12:19:56.210Z,28.81
2023-06-10T12:21:57.831Z,28.83
2023-06-10T12:24:05.632Z,28.86
2023-06-10T12:32:47.095Z,28.98
2023-06-10T12:34:49.891Z,28.95
2023-06-10T12:36:51.506Z,28.99
2023-06-10T12:38:54.778Z,29.01
2023-06-10T12:41:03.591Z,29.03
2023-06-10T12:43:05.159Z,29.06
2023-06-10T12:45:09.392Z,29.07
2023-06-10T12:47:15.114Z,29.09
2023-06-10T12:49:21.272Z,29.10
2023-06-10T12:51:22.886Z,29.13
2023-06-10T12:53:25.777Z,29.14
2023-06-10T12:55:27.777Z,29.16
2023-06-10T12:57:30.836Z,29.14
2023-06-10T12:59:33.303Z,29.19
2023-06-10T13:01:35.456Z,29.22
2023-06-10T13:03:39.362Z,29.23
2023-06-10T13:05:41.532Z,29.25
2023-06-10T13:07:43.235Z,29.25
2023-06-10T13:09:45.403Z,29.24
2023-06-10T13:11:47.248Z,29.28
2023-06-10T13:13:48.853Z,29.29
2023-06-10T13:15:51.045Z,29.31
2023-06-10T13:17:52.980Z,29.31
2023-06-10T13:19:54.838Z,29.34
2023-06-10T13:21:56.582Z,29.35
2023-06-10T13:23:58.254Z,29.37
2023-06-10T13:25:59.891Z,29.38
2023-06-10T13:28:02.445Z,29.38
2023-06-10T13:30:04.323Z,29.40
2023-06-10T13:32:07.105Z,29.35
2023-06-10T13:34:08.730Z,29.41
2023-06-10T13:36:10.766Z,29.43
2023-06-10T13:38:12.758Z,29.44
2023-06-10T13:40:14.345Z,29.45
2023-06-10T13:42:16.236Z,29.45
2023-06-10T13:44:17.823Z,29.46
2023-06-10T13:46:19.393Z,29.46
2023-06-10T13:48:21.279Z,29.48
2023-06-10T13:50:22.905Z,29.48
2023-06-10T13:52:24.673Z,29.50
2023-06-10T13:54:26.448Z,29.50
2023-06-10T13:56:28.422Z,29.45
2023-06-10T13:58:30.064Z,29.49
2023-06-10T14:00:31.893Z,29.52
2023-06-10T14:02:33.604Z,29.52
2023-06-10T14:04:35.418Z,29.52
2023-06-10T14:06:37.246Z,29.52
2023-06-10T14:08:38.949Z,29.53
2023-06-10T14:10:41.168Z,29.54
2023-06-10T14:12:43.119Z,29.54
2023-06-10T14:14:44.710Z,29.56
2023-06-10T14:16:46.347Z,29.57
2023-06-10T14:18:47.966Z,29.53
2023-06-10T14:20:49.677Z,29.57
2023-06-10T14:22:51.269Z,29.56
2023-06-10T14:24:52.901Z,29.58
2023-06-10T14:26:54.660Z,29.58
2023-06-10T14:28:56.464Z,29.58
2023-06-10T14:30:58.818Z,29.57
2023-06-10T14:33:00.625Z,29.59
2023-06-10T14:35:03.225Z,29.56
2023-06-10T14:37:08.260Z,29.60
2023-06-10T14:39:10.224Z,29.60
2023-06-10T14:41:11.846Z,29.61
2023-06-10T14:43:13.537Z,29.60
2023-06-10T14:45:16.289Z,29.60
2023-06-10T14:47:18.012Z,29.61
2023-06-10T14:49:19.706Z,29.60
2023-06-10T14:51:22.215Z,29.62
2023-06-10T14:53:23.857Z,29.63
2023-06-10T14:55:25.748Z,29.61
2023-06-10T14:57:27.410Z,29.65
2023-06-10T14:59:29.027Z,29.57
2023-06-10T15:01:30.808Z,29.68
2023-06-10T15:03:32.967Z,29.68
2023-06-10T15:05:35.768Z,29.68
2023-06-10T15:07:37.397Z,29.70
2023-06-10T15:09:39.024Z,29.71
2023-06-10T15:11:40.780Z,29.73
2023-06-10T15:13:42.525Z,29.72
2023-06-10T15:15:44.245Z,29.72
2023-06-10T15:17:46.899Z,29.72
2023-06-10T15:19:48.785Z,29.71
2023-06-10T15:21:50.580Z,29.74
2023-06-10T15:23:52.808Z,29.75
2023-06-10T15:25:54.576Z,29.77
2023-06-10T15:27:56.204Z,29.78
2023-06-10T15:29:57.906Z,29.78
2023-06-10T15:31:59.703Z,29.80
2023-06-10T15:34:01.901Z,29.83
2023-06-10T15:36:03.835Z,29.84
2023-06-10T15:38:05.593Z,29.85
2023-06-10T15:40:07.899Z,29.84
2023-06-10T15:42:09.807Z,29.86
2023-06-10T15:44:11.834Z,29.86
2023-06-10T15:46:13.642Z,29.88
2023-06-10T15:48:15.252Z,29.87
2023-06-10T15:50:17.318Z,29.87
2023-06-10T15:52:18.939Z,29.88
2023-06-10T15:54:20.824Z,29.90
2023-06-10T15:56:23.791Z,29.90
2023-06-10T15:58:25.469Z,29.90
2023-06-10T16:00:27.494Z,29.90
2023-06-10T16:02:29.864Z,29.90
2023-06-10T16:04:31.582Z,29.91
2023-06-10T16:06:33.172Z,29.91
2023-06-10T16:08:35.183Z,29.91
2023-06-10T16:10:36.817Z,29.91
2023-06-10T16:12:38.431Z,29.91
2023-06-10T16:14:40.194Z,29.90
2023-06-10T16:16:42.036Z,29.92
2023-06-10T16:18:43.618Z,29.91
2023-06-10T16:20:45.434Z,29.90
2023-06-10T16:22:47.225Z,29.89
2023-06-10T16:24:48.878Z,29.90
2023-06-10T16:26:50.779Z,29.90
2023-06-10T16:28:52.402Z,29.89
2023-06-10T16:30:54.059Z,29.89
2023-06-10T16:32:55.956Z,29.90
2023-06-10T16:34:57.547Z,29.86
2023-06-10T16:36:59.153Z,29.88
2023-06-10T16:39:00.880Z,29.88
2023-06-10T16:41:02.525Z,29.88
2023-06-10T16:43:04.195Z,29.86
2023-06-10T16:45:06.829Z,29.88
2023-06-10T16:47:08.679Z,29.88
2023-06-10T16:49:10.521Z,29.86
2023-06-10T16:51:12.743Z,29.85
2023-06-10T16:53:14.446Z,29.81
2023-06-10T16:55:16.741Z,29.86
2023-06-10T16:57:18.392Z,29.84
2023-06-10T16:59:20.092Z,29.81
2023-06-10T17:01:21.758Z,29.80
2023-06-10T17:03:23.336Z,29.72
2023-06-10T17:05:24.949Z,29.77
2023-06-10T17:07:27.201Z,29.76
2023-06-10T17:09:28.995Z,29.75
2023-06-10T17:11:30.997Z,29.74
2023-06-10T17:13:32.573Z,29.72
2023-06-10T17:15:34.319Z,29.71
2023-06-10T17:17:36.183Z,29.69
2023-06-10T17:19:37.937Z,29.68
2023-06-10T17:21:39.609Z,29.66
2023-06-10T17:23:41.305Z,29.64
2023-06-10T17:25:43.089Z,29.64
2023-06-10T17:27:44.728Z,29.62
2023-06-10T17:29:46.461Z,29.60
2023-06-10T17:31:48.111Z,29.57
2023-06-10T17:33:49.812Z,29.58
2023-06-10T17:35:52.376Z,29.56
2023-06-10T17:37:53.982Z,29.51
2023-06-10T17:39:55.850Z,29.51
2023-06-10T17:41:57.369Z,29.49
2023-06-10T17:43:59.113Z,29.47
2023-06-10T17:46:00.971Z,29.47
2023-06-10T17:48:02.735Z,29.46
2023-06-10T17:50:05.024Z,29.42
2023-06-10T17:52:07.081Z,29.41
2023-06-10T17:54:08.842Z,29.37
2023-06-10T17:56:10.558Z,29.38
2023-06-10T17:58:12.269Z,29.38
2023-06-10T18:00:14.224Z,29.32
2023-06-10T18:02:16.004Z,29.36
2023-06-10T18:04:17.804Z,29.34
2023-06-10T18:06:20.152Z,29.34
2023-06-10T18:08:23.072Z,29.33
2023-06-10T18:10:24.672Z,29.30
2023-06-10T18:12:26.341Z,29.30
2023-06-10T18:14:27.976Z,29.29
2023-06-10T18:16:30.020Z,29.28
2023-06-10T18:18:31.883Z,29.27
2023-06-10T18:20:33.566Z,29.27
2023-06-10T18:22:35.264Z,29.25
2023-06-10T18:24:36.911Z,29.24
2023-06-10T18:26:38.573Z,29.22
2023-06-10T18:34:55.053Z,29.12
2023-06-10T18:36:56.692Z,29.20
2023-06-10T18:38:58.321Z,29.21
2023-06-10T18:41:00.895Z,29.20
2023-06-10T18:43:02.492Z,29.12
2023-06-10T18:45:04.730Z,29.22
2023-06-10T18:47:06.890Z,29.21
2023-06-10T18:49:08.587Z,29.21
2023-06-10T18:51:10.639Z,29.19
2023-06-10T18:53:12.195Z,29.17
2023-06-10T18:55:13.788Z,29.18
2023-06-10T18:57:15.545Z,29.17
2023-06-10T18:59:17.181Z,29.03
2023-06-10T19:01:18.850Z,29.15
2023-06-10T19:03:20.562Z,29.13
2023-06-10T19:05:23.477Z,29.12
2023-06-10T19:07:25.058Z,29.07
2023-06-10T19:09:26.719Z,29.11
2023-06-10T19:11:28.776Z,29.10
2023-06-10T19:13:31.172Z,29.10
2023-06-10T19:15:32.745Z,29.09
2023-06-10T19:17:34.610Z,29.04
2023-06-10T19:19:36.207Z,29.08
2023-06-10T19:21:37.945Z,29.06
2023-06-10T19:23:39.665Z,29.03
2023-06-10T19:25:41.396Z,29.06
2023-06-10T19:27:43.142Z,29.05
2023-06-10T19:29:44.707Z,29.03
2023-06-10T19:31:46.405Z,29.03
2023-06-10T19:33:48.190Z,29.03
2023-06-10T19:35:49.814Z,29.01
2023-06-10T19:37:51.490Z,29.01
2023-06-10T19:42:00.178Z,28.99
2023-06-10T19:44:02.030Z,28.99
2023-06-10T19:46:03.797Z,28.98
2023-06-10T19:48:06.949Z,28.97
2023-06-10T19:50:11.417Z,28.95
2023-06-10T19:52:13.064Z,28.95
2023-06-10T19:54:14.797Z,28.94
2023-06-10T19:56:19.897Z,28.94
2023-06-10T19:58:21.565Z,28.92
2023-06-10T20:00:23.524Z,28.91
2023-06-10T20:02:25.226Z,28.92
2023-06-10T20:04:26.974Z,28.91
2023-06-10T20:06:28.730Z,28.89
2023-06-10T20:08:30.445Z,28.88
2023-06-10T20:10:32.105Z,28.87
2023-06-10T20:12:33.929Z,28.87
2023-06-10T20:14:35.474Z,28.87
2023-06-10T20:16:37.237Z,28.85
2023-06-10T20:18:39.028Z,28.86
2023-06-10T20:20:40.690Z,28.85
2023-06-10T20:22:42.535Z,28.84
2023-06-10T20:24:46.213Z,28.84
2023-06-10T20:26:47.951Z,28.84
2023-06-10T20:28:49.892Z,28.84
2023-06-10T20:30:51.447Z,28.83
2023-06-10T20:32:53.702Z,28.82
2023-06-10T20:34:55.396Z,28.81
2023-06-10T20:36:57.941Z,28.81
2023-06-10T20:38:59.474Z,28.81
2023-06-10T20:41:01.101Z,28.80
2023-06-10T20:43:02.738Z,28.78
2023-06-10T20:45:05.083Z,28.80
2023-06-10T20:47:07.284Z,28.76
2023-06-10T20:49:08.843Z,28.79
2023-06-10T20:51:10.521Z,28.77
2023-06-10T20:53:12.243Z,28.77
2023-06-10T20:55:13.822Z,28.74
2023-06-10T20:57:15.440Z,28.77
2023-06-10T20:59:16.991Z,28.76
2023-06-10T21:01:18.723Z,28.70
2023-06-10T21:03:20.604Z,28.75
2023-06-10T21:05:22.268Z,28.74
2023-06-10T21:07:24.019Z,28.73
2023-06-10T21:09:25.581Z,28.73
2023-06-10T21:11:27.369Z,28.72
2023-06-10T21:13:29.089Z,28.73
2023-06-10T21:15:30.710Z,28.72
2023-06-10T21:17:32.791Z,28.72
2023-06-10T21:19:34.899Z,28.65
2023-06-10T21:21:37.289Z,28.68
2023-06-10T21:23:38.908Z,28.71
2023-06-10T21:25:41.633Z,28.70
2023-06-10T21:27:43.312Z,28.70
2023-06-10T21:29:44.932Z,28.67
2023-06-10T21:31:46.964Z,28.69
2023-06-10T21:33:48.572Z,28.67
2023-06-10T21:35:50.433Z,28.65
2023-06-10T21:37:52.109Z,28.67
2023-06-10T21:39:53.641Z,28.66
2023-06-10T21:41:55.308Z,28.65
2023-06-10T21:43:57.283Z,28.63
2023-06-10T21:45:58.793Z,28.65
2023-06-10T21:48:00.437Z,28.65
2023-06-10T21:50:02.234Z,28.62
2023-06-10T21:52:04.113Z,28.64
2023-06-10T21:54:05.798Z,28.64
2023-06-10T21:56:07.395Z,28.64
2023-06-10T21:58:08.951Z,28.63
2023-06-10T22:00:14.272Z,28.61
2023-06-10T22:02:16.200Z,28.62
2023-06-10T22:04:17.824Z,28.60
2023-06-10T22:06:19.520Z,28.61
2023-06-10T22:08:21.153Z,28.61
2023-06-10T22:10:23.037Z,28.59
2023-06-10T22:12:24.604Z,28.60
2023-06-10T22:14:26.201Z,28.60
2023-06-10T22:16:27.928Z,28.60
2023-06-10T22:18:30.261Z,28.56
2023-06-10T22:20:32.136Z,28.57
2023-06-10T22:22:33.755Z,28.58
2023-06-10T22:24:35.680Z,28.57
2023-06-10T22:28:47.996Z,28.59
2023-06-10T22:30:49.723Z,28.53
2023-06-10T22:32:51.471Z,28.53
2023-06-10T22:34:53.143Z,28.52
2023-06-10T22:36:54.693Z,28.52
2023-06-10T22:38:56.380Z,28.52
2023-06-10T22:40:58.096Z,28.51
2023-06-10T22:43:00.409Z,28.50
2023-06-10T22:45:02.209Z,28.49
2023-06-10T22:47:03.981Z,28.51
2023-06-10T22:49:05.931Z,28.50
2023-06-10T22:51:07.556Z,28.50
2023-06-10T22:53:09.496Z,28.48
2023-06-10T22:55:11.785Z,28.48
2023-06-10T22:57:13.645Z,28.49
2023-06-10T22:59:15.407Z,28.48
2023-06-10T23:01:17.105Z,28.47
2023-06-10T23:03:18.673Z,28.47
2023-06-10T23:05:20.385Z,28.47
2023-06-10T23:07:22.306Z,28.49
2023-06-10T23:09:23.913Z,28.49
2023-06-10T23:11:26.503Z,28.49
2023-06-10T23:13:28.504Z,28.50
2023-06-10T23:15:30.211Z,28.48
2023-06-10T23:17:32.008Z,28.49
2023-06-10T23:19:34.300Z,28.48
2023-06-10T23:21:36.663Z,28.46
2023-06-10T23:23:39.147Z,28.49
2023-06-10T23:25:41.688Z,28.44
2023-06-10T23:27:43.289Z,28.47
2023-06-10T23:29:56.425Z,28.47
2023-06-10T23:32:00.783Z,28.44
2023-06-10T23:34:03.890Z,28.45
2023-06-10T23:36:05.719Z,28.45
2023-06-10T23:38:07.256Z,28.45
2023-06-10T23:40:09.613Z,28.45
2023-06-10T23:42:11.366Z,28.43
2023-06-10T23:44:13.876Z,28.44
2023-06-10T23:46:16.080Z,28.44
2023-06-10T23:48:17.752Z,28.44
2023-06-10T23:50:19.579Z,28.41
2023-06-10T23:52:22.547Z,28.42
2023-06-10T23:54:24.612Z,28.41
2023-06-10T23:56:26.334Z,28.38
2023-06-10T23:58:27.947Z,28.38
